Hovedside
METAR-TAF:

METAR-TAF

Lufthavner :

Skellefteå, Sverige

Skellefteå lufthavn

breddegrad: 64-38N, lengdegrad: 021-05E, høyde over havet: 49 m

Gjeldene værobservasjon

Denne rapporten ble laget for 22 minutter siden, klokken 07:20 UTC
Vind 2 kt fra skiftende retning
Temperatur 0°C
Luftfuktighet 86%
Trykk 1031 hPa
Sikt 10 km eller mer
Brutte skyer i en høyde av 2800 ft

METAR: ESNS 240720Z VRB02KT 9999 BKN028 M00/M02 Q1031

Tid: 09:42 (07:42 UTC)

Varsel

Denne rapporten ble laget for 2 timer og 12 minutter siden, klokken 05:30 UTC
Varsel gyldig fra 24. klokken 06 UTC til 24. klokken 15 UTC
Vind 3 kt fra Sør
Sikt 10 km eller mer
Brutte skyer i en høyde av 2000 ft
lett snø

TAF: ESNS 240530Z 2406/2415 17003KT 9999 -SN BKN020

Værobservasjoner og værvarsel for over 4000 flyplasser (METAR- og TAF-rapporter).

Tilgjengelige stasjoner er representert av de røde og gule prikkene på kartet.

Hold musepekeren over prikken for å se navnet på stasjonen.

Klikk så for å se værobservasjoner og -varsler.

For å forandre kartet kan du klikke på den grønne knappen med svart kryss for å zoome inn, på den grønne knappen med strek for å zoome ut, eller på de grønne pilene for å se tilstøtende kart.


METAR-TAF: